Time;durP1;ratioP1;P1;durP2;ratioP2;P2;SDS_P1;SDS_P2;PMS_P1;PMS_P2;Temp;Humidity;BMP_temperature;BMP_pressure;BME280_temperature;BME280_humidity;BME280_pressure;Samples;Min_cycle;Max_cycle;Signal;HPM_P1;HPM_P2
2022/03/15 00:00:23;;;;;;;175.07;108.53;;;;;;;;;;5054573;28;20037;-68
2022/03/15 00:03:28;;;;;;;169.88;111.47;;;;;;;;;;5054731;28;20060;-68
2022/03/15 00:06:34;;;;;;;179.00;112.82;;;;;;;;;;5053657;28;20052;-68
2022/03/15 00:09:38;;;;;;;172.80;106.50;;;;;;;;;;5054467;28;20040;-68
2022/03/15 00:12:43;;;;;;;171.57;109.75;;;;;;;;;;5054304;28;20396;-68
2022/03/15 00:15:48;;;;;;;172.27;108.03;;;;;;;;;;5054094;28;20060;-68
2022/03/15 00:18:52;;;;;;;168.02;105.85;;;;;;;;;;5054210;28;20039;-67
2022/03/15 00:21:57;;;;;;;153.63;100.47;;;;;;;;;;5054355;28;20044;-67
2022/03/15 00:25:02;;;;;;;167.68;105.68;;;;;;;;;;5053868;28;20412;-68
2022/03/15 00:28:07;;;;;;;163.25;104.57;;;;;;;;;;5054278;28;20055;-67
2022/03/15 00:31:12;;;;;;;165.38;102.47;;;;;;;;;;5053375;28;20411;-68
2022/03/15 00:34:16;;;;;;;158.88;99.70;;;;;;;;;;5054020;28;20042;-67
2022/03/15 00:37:20;;;;;;;157.73;99.80;;;;;;;;;;5052970;28;20059;-68
2022/03/15 00:40:25;;;;;;;143.52;97.38;;;;;;;;;;5052951;28;20040;-67
2022/03/15 00:43:29;;;;;;;127.70;81.07;;;;;;;;;;5054001;28;20400;-68
2022/03/15 00:46:33;;;;;;;141.52;92.53;;;;;;;;;;5053824;28;20056;-68
2022/03/15 00:49:38;;;;;;;149.73;94.40;;;;;;;;;;5053656;28;20048;-68
2022/03/15 00:52:44;;;;;;;140.43;93.75;;;;;;;;;;5053627;28;20044;-70
2022/03/15 00:55:48;;;;;;;142.13;95.05;;;;;;;;;;5053711;28;20043;-67
2022/03/15 00:58:53;;;;;;;138.85;92.30;;;;;;;;;;5052518;28;20052;-68
2022/03/15 01:01:57;;;;;;;138.10;90.63;;;;;;;;;;5053301;28;20679;-68
2022/03/15 01:05:01;;;;;;;143.32;89.78;;;;;;;;;;5053282;28;20052;-68
2022/03/15 01:08:05;;;;;;;140.80;85.88;;;;;;;;;;5051741;28;20515;-68
2022/03/15 01:11:10;;;;;;;129.63;81.82;;;;;;;;;;5053305;28;20393;-68
2022/03/15 01:14:14;;;;;;;139.80;84.68;;;;;;;;;;5052930;28;20048;-68
2022/03/15 01:17:18;;;;;;;133.30;82.28;;;;;;;;;;5052573;28;20056;-68
2022/03/15 01:20:23;;;;;;;125.68;80.50;;;;;;;;;;5052212;28;20062;-67
2022/03/15 01:23:29;;;;;;;123.43;77.32;;;;;;;;;;5052302;28;20059;-67
2022/03/15 01:26:33;;;;;;;116.40;77.35;;;;;;;;;;5053026;28;20064;-68
2022/03/15 01:29:37;;;;;;;113.55;76.57;;;;;;;;;;5053099;28;20279;-68
2022/03/15 01:32:42;;;;;;;109.55;73.75;;;;;;;;;;5053161;28;20074;-68
2022/03/15 01:35:46;;;;;;;116.05;73.05;;;;;;;;;;5052834;28;20491;-68
2022/03/15 01:38:52;;;;;;;114.05;70.88;;;;;;;;;;5052733;28;20302;-68
2022/03/15 01:41:57;;;;;;;110.32;74.25;;;;;;;;;;5052701;28;20036;-68
2022/03/15 01:45:03;;;;;;;111.32;72.03;;;;;;;;;;5051494;28;20048;-68
2022/03/15 01:48:10;;;;;;;114.72;72.35;;;;;;;;;;5051994;28;20048;-67
2022/03/15 01:51:15;;;;;;;111.22;69.40;;;;;;;;;;5052452;28;20060;-68
2022/03/15 01:54:22;;;;;;;110.82;69.90;;;;;;;;;;5051751;28;20055;-68
2022/03/15 01:57:27;;;;;;;108.15;68.90;;;;;;;;;;5052519;28;20048;-68
2022/03/15 02:00:32;;;;;;;105.13;67.82;;;;;;;;;;5051797;28;20060;-68
2022/03/15 02:03:37;;;;;;;101.03;65.50;;;;;;;;;;5051788;28;20048;-68
2022/03/15 02:06:42;;;;;;;102.18;66.68;;;;;;;;;;5052109;28;20429;-68
2022/03/15 02:09:49;;;;;;;105.55;67.70;;;;;;;;;;5052560;28;20040;-68
2022/03/15 02:12:53;;;;;;;100.10;65.28;;;;;;;;;;5051882;28;20507;-68
2022/03/15 02:15:58;;;;;;;106.28;63.67;;;;;;;;;;5051774;28;20052;-67
2022/03/15 02:19:03;;;;;;;108.35;65.45;;;;;;;;;;5051769;28;20076;-68
2022/03/15 02:22:07;;;;;;;100.18;63.25;;;;;;;;;;5051297;28;20048;-68
2022/03/15 02:25:13;;;;;;;100.00;64.75;;;;;;;;;;5051813;28;20068;-68
2022/03/15 02:28:17;;;;;;;96.25;63.28;;;;;;;;;;5052205;28;20495;-68
2022/03/15 02:31:24;;;;;;;103.95;64.38;;;;;;;;;;5051919;28;20080;-69
2022/03/15 02:34:28;;;;;;;102.22;63.38;;;;;;;;;;5051834;28;20051;-68
2022/03/15 02:37:33;;;;;;;110.13;65.32;;;;;;;;;;5051666;28;20036;-68
2022/03/15 02:40:37;;;;;;;99.35;65.78;;;;;;;;;;5051649;28;20048;-68
2022/03/15 02:43:42;;;;;;;101.55;65.72;;;;;;;;;;5051550;28;20040;-68
2022/03/15 02:46:50;;;;;;;107.93;67.13;;;;;;;;;;5051659;28;20079;-67
2022/03/15 02:49:55;;;;;;;101.55;66.10;;;;;;;;;;5050804;28;20036;-68
2022/03/15 02:52:59;;;;;;;101.10;65.07;;;;;;;;;;5051504;28;20063;-68
2022/03/15 02:56:04;;;;;;;99.15;63.97;;;;;;;;;;5051144;28;20040;-68
2022/03/15 02:59:15;;;;;;;99.68;63.50;;;;;;;;;;5051158;28;20330;-67
2022/03/15 03:02:20;;;;;;;94.63;59.77;;;;;;;;;;5051198;28;20052;-68
2022/03/15 03:05:24;;;;;;;82.85;54.95;;;;;;;;;;5050907;28;20048;-68
2022/03/15 03:08:30;;;;;;;83.03;54.65;;;;;;;;;;5051004;28;20504;-68
2022/03/15 03:11:35;;;;;;;82.10;53.47;;;;;;;;;;5050785;28;20044;-68
2022/03/15 03:14:40;;;;;;;80.18;52.67;;;;;;;;;;5050777;28;20048;-67
2022/03/15 03:17:45;;;;;;;83.10;51.33;;;;;;;;;;5050823;28;20032;-68
2022/03/15 03:20:50;;;;;;;81.45;49.90;;;;;;;;;;5051065;28;20063;-67
2022/03/15 03:23:54;;;;;;;79.38;49.90;;;;;;;;;;5050995;28;20104;-67
2022/03/15 03:27:00;;;;;;;76.75;50.05;;;;;;;;;;5050172;28;20055;-68
2022/03/15 03:30:04;;;;;;;74.80;48.78;;;;;;;;;;5051166;28;20036;-66
2022/03/15 03:33:09;;;;;;;74.22;46.72;;;;;;;;;;5050839;28;20507;-67
2022/03/15 03:36:13;;;;;;;72.93;46.10;;;;;;;;;;5050647;28;20235;-68
2022/03/15 03:39:17;;;;;;;68.93;45.60;;;;;;;;;;5050689;28;20147;-68
2022/03/15 03:42:22;;;;;;;68.55;46.03;;;;;;;;;;5050708;28;20048;-68
2022/03/15 03:45:26;;;;;;;66.28;44.28;;;;;;;;;;5051094;28;20056;-68
2022/03/15 03:48:31;;;;;;;72.13;43.00;;;;;;;;;;5050664;28;20044;-68
2022/03/15 03:51:36;;;;;;;66.57;43.25;;;;;;;;;;5050604;28;20048;-68
2022/03/15 03:54:40;;;;;;;70.45;44.75;;;;;;;;;;5049887;28;20389;-68
2022/03/15 03:57:44;;;;;;;72.88;43.45;;;;;;;;;;5049937;28;20104;-68
2022/03/15 04:00:49;;;;;;;76.00;44.53;;;;;;;;;;5049669;28;20052;-67
2022/03/15 04:03:53;;;;;;;66.88;44.30;;;;;;;;;;5050608;28;20044;-67
2022/03/15 04:07:00;;;;;;;76.82;44.25;;;;;;;;;;5050719;28;20416;-68
2022/03/15 04:10:06;;;;;;;74.10;43.15;;;;;;;;;;5050510;28;20190;-68
2022/03/15 04:13:11;;;;;;;69.72;42.03;;;;;;;;;;5050593;28;20555;-68
2022/03/15 04:16:16;;;;;;;64.93;41.58;;;;;;;;;;5050020;28;20056;-68
2022/03/15 04:19:21;;;;;;;62.83;40.40;;;;;;;;;;5050261;28;20044;-69
2022/03/15 04:22:25;;;;;;;67.70;43.50;;;;;;;;;;5050493;28;20052;-67
2022/03/15 04:25:29;;;;;;;65.50;42.50;;;;;;;;;;5049266;28;20420;-68
2022/03/15 04:28:34;;;;;;;66.65;43.17;;;;;;;;;;5050155;28;20040;-68
2022/03/15 04:31:38;;;;;;;67.00;42.75;;;;;;;;;;5049451;28;20044;-68
2022/03/15 04:34:42;;;;;;;62.33;40.65;;;;;;;;;;5050151;28;20396;-68
2022/03/15 04:37:47;;;;;;;65.68;39.88;;;;;;;;;;5049972;28;20492;-68
2022/03/15 04:40:52;;;;;;;77.10;43.03;;;;;;;;;;5050009;28;20048;-68
2022/03/15 04:43:56;;;;;;;78.22;42.63;;;;;;;;;;5052955;28;20499;-68
2022/03/15 04:47:00;;;;;;;65.95;42.15;;;;;;;;;;5053878;28;20070;-68
2022/03/15 04:50:05;;;;;;;61.58;40.42;;;;;;;;;;5053503;28;20056;-67
2022/03/15 04:53:10;;;;;;;65.68;39.22;;;;;;;;;;5053708;28;20369;-67
2022/03/15 04:56:14;;;;;;;58.53;39.38;;;;;;;;;;5053311;28;20048;-67
2022/03/15 04:59:19;;;;;;;62.55;38.40;;;;;;;;;;5053241;28;20218;-68
2022/03/15 05:02:24;;;;;;;61.60;39.38;;;;;;;;;;5053687;28;20040;-67
2022/03/15 05:05:28;;;;;;;58.42;37.83;;;;;;;;;;5053061;28;20048;-68
2022/03/15 05:08:33;;;;;;;59.25;35.13;;;;;;;;;;5053194;28;20035;-68
2022/03/15 05:11:44;;;;;;;54.97;36.85;;;;;;;;;;5053496;28;20497;-68
2022/03/15 05:14:52;;;;;;;58.80;36.42;;;;;;;;;;5053122;28;20076;-69
2022/03/15 05:17:56;;;;;;;66.75;35.33;;;;;;;;;;5053196;28;20040;-68
2022/03/15 05:21:02;;;;;;;58.05;36.35;;;;;;;;;;5052326;28;20044;-69
2022/03/15 05:24:06;;;;;;;66.57;36.88;;;;;;;;;;5052996;28;20044;-68
2022/03/15 05:27:11;;;;;;;69.68;40.80;;;;;;;;;;5052908;28;20052;-68
2022/03/15 05:30:17;;;;;;;63.17;38.50;;;;;;;;;;5052688;28;20040;-68
2022/03/15 05:33:21;;;;;;;60.42;36.05;;;;;;;;;;5052947;28;20108;-68
2022/03/15 05:36:25;;;;;;;71.88;35.45;;;;;;;;;;5052671;28;20504;-67
2022/03/15 05:39:30;;;;;;;60.30;36.35;;;;;;;;;;5052476;28;20048;-67
2022/03/15 05:42:35;;;;;;;58.35;33.80;;;;;;;;;;5052829;28;20056;-68
2022/03/15 05:45:40;;;;;;;59.50;35.08;;;;;;;;;;5052242;28;20543;-67
2022/03/15 05:48:44;;;;;;;59.90;32.83;;;;;;;;;;5051633;28;20420;-68
2022/03/15 05:51:48;;;;;;;54.97;30.58;;;;;;;;;;5052356;28;20104;-68
2022/03/15 05:54:52;;;;;;;53.38;30.05;;;;;;;;;;5051728;28;20389;-67
2022/03/15 05:57:57;;;;;;;60.33;30.20;;;;;;;;;;5052395;28;20044;-69
2022/03/15 06:01:02;;;;;;;53.35;28.92;;;;;;;;;;5052284;28;20348;-67
2022/03/15 06:04:07;;;;;;;64.13;32.65;;;;;;;;;;5052417;28;20044;-69
2022/03/15 06:07:11;;;;;;;41.20;26.15;;;;;;;;;;5051451;28;20400;-68
2022/03/15 06:10:17;;;;;;;36.80;25.63;;;;;;;;;;5052189;28;20048;-68
2022/03/15 06:13:22;;;;;;;59.50;34.38;;;;;;;;;;5052251;28;20036;-68
2022/03/15 06:16:26;;;;;;;54.03;35.63;;;;;;;;;;5051785;28;20588;-68
2022/03/15 06:19:30;;;;;;;53.30;29.35;;;;;;;;;;5052134;28;20064;-75
2022/03/15 06:22:35;;;;;;;46.45;27.20;;;;;;;;;;5052314;28;20032;-73
2022/03/15 06:25:39;;;;;;;53.13;27.48;;;;;;;;;;5039476;28;20067;-73
2022/03/15 06:28:43;;;;;;;49.22;27.98;;;;;;;;;;5051843;28;20048;-73
2022/03/15 06:31:48;;;;;;;49.63;27.52;;;;;;;;;;5052022;28;20048;-72
2022/03/15 06:34:52;;;;;;;47.20;27.52;;;;;;;;;;5052022;28;20516;-74
2022/03/15 06:38:00;;;;;;;51.58;25.17;;;;;;;;;;5051519;28;20039;-70
2022/03/15 06:41:04;;;;;;;47.58;26.48;;;;;;;;;;5051343;28;20056;-69
2022/03/15 06:44:08;;;;;;;41.70;24.40;;;;;;;;;;5051859;28;20055;-69
2022/03/15 06:47:13;;;;;;;42.08;25.05;;;;;;;;;;5051632;28;20068;-72
2022/03/15 06:50:17;;;;;;;32.53;21.95;;;;;;;;;;5051318;28;20495;-71
2022/03/15 06:53:21;;;;;;;33.50;21.55;;;;;;;;;;5050804;28;20380;-71
2022/03/15 06:56:26;;;;;;;32.03;22.77;;;;;;;;;;5050913;28;20044;-71
2022/03/15 06:59:30;;;;;;;43.67;23.17;;;;;;;;;;5051244;28;20052;-72
2022/03/15 07:02:35;;;;;;;50.40;24.10;;;;;;;;;;5051068;28;20040;-69
2022/03/15 07:05:40;;;;;;;42.47;23.40;;;;;;;;;;5049452;28;20306;-70
2022/03/15 07:08:44;;;;;;;50.45;23.27;;;;;;;;;;5050908;28;20040;-70
2022/03/15 07:11:49;;;;;;;43.65;23.40;;;;;;;;;;5051005;28;20052;-71
2022/03/15 07:14:53;;;;;;;40.80;25.63;;;;;;;;;;5050539;28;20515;-70
2022/03/15 07:17:58;;;;;;;35.42;24.17;;;;;;;;;;5050963;28;20048;-66
2022/03/15 07:21:02;;;;;;;39.63;25.13;;;;;;;;;;5051072;28;20048;-70
2022/03/15 07:24:07;;;;;;;44.75;26.52;;;;;;;;;;5050859;28;20048;-70
2022/03/15 07:27:11;;;;;;;38.33;25.40;;;;;;;;;;5051039;28;20060;-74
2022/03/15 07:30:15;;;;;;;44.85;26.00;;;;;;;;;;5050905;28;20059;-70
2022/03/15 07:33:20;;;;;;;38.20;23.48;;;;;;;;;;5050009;28;20507;-69
2022/03/15 07:36:24;;;;;;;38.22;24.63;;;;;;;;;;5050650;28;20048;-71
2022/03/15 07:39:29;;;;;;;35.97;22.80;;;;;;;;;;5050688;28;20052;-70
2022/03/15 07:42:33;;;;;;;33.28;20.58;;;;;;;;;;5050444;28;20230;-67
2022/03/15 07:45:38;;;;;;;34.03;19.13;;;;;;;;;;5050413;28;20060;-69
2022/03/15 07:48:42;;;;;;;23.95;16.65;;;;;;;;;;5050532;28;20040;-66
2022/03/15 07:51:47;;;;;;;30.35;19.52;;;;;;;;;;5050592;28;20052;-69
2022/03/15 07:54:51;;;;;;;26.70;19.67;;;;;;;;;;5050898;28;20036;-68
2022/03/15 07:57:56;;;;;;;27.88;18.90;;;;;;;;;;5050956;28;20044;-69
2022/03/15 08:01:00;;;;;;;30.30;18.23;;;;;;;;;;5050744;28;20056;-69
2022/03/15 08:04:05;;;;;;;26.50;20.17;;;;;;;;;;5050312;28;20044;-67
2022/03/15 08:07:10;;;;;;;30.67;19.13;;;;;;;;;;5050438;28;20052;-68
2022/03/15 08:10:14;;;;;;;39.90;21.25;;;;;;;;;;5050437;28;20123;-69
2022/03/15 08:13:19;;;;;;;31.77;21.35;;;;;;;;;;5050648;28;20060;-70
2022/03/15 08:16:23;;;;;;;31.27;21.25;;;;;;;;;;5049968;28;20420;-70
2022/03/15 08:19:28;;;;;;;30.48;20.80;;;;;;;;;;5054348;28;20040;-69
2022/03/15 08:22:33;;;;;;;27.10;18.83;;;;;;;;;;5054064;28;20043;-70
2022/03/15 08:25:37;;;;;;;22.17;15.85;;;;;;;;;;5053891;28;20064;-69
2022/03/15 08:28:42;;;;;;;24.27;16.23;;;;;;;;;;5054085;28;20144;-69
2022/03/15 08:31:46;;;;;;;19.67;12.85;;;;;;;;;;5053998;28;20048;-69
2022/03/15 08:34:51;;;;;;;17.35;12.13;;;;;;;;;;5053803;28;20052;-69
2022/03/15 08:37:56;;;;;;;17.25;13.05;;;;;;;;;;5054176;28;20044;-69
2022/03/15 08:41:00;;;;;;;18.00;11.90;;;;;;;;;;5053820;28;20044;-70
2022/03/15 08:44:06;;;;;;;26.73;12.45;;;;;;;;;;5054045;28;20048;-69
2022/03/15 08:47:10;;;;;;;19.80;11.57;;;;;;;;;;5052890;28;20056;-67
2022/03/15 08:50:15;;;;;;;18.27;11.27;;;;;;;;;;5053720;28;20044;-69
2022/03/15 08:53:19;;;;;;;14.48;11.13;;;;;;;;;;5053710;28;20051;-69
2022/03/15 08:56:23;;;;;;;14.63;11.07;;;;;;;;;;5053810;28;20052;-68
2022/03/15 08:59:28;;;;;;;23.30;13.68;;;;;;;;;;5053659;28;20401;-69
2022/03/15 09:02:32;;;;;;;21.00;14.20;;;;;;;;;;5052615;28;20126;-69
2022/03/15 09:05:36;;;;;;;13.68;10.88;;;;;;;;;;5053430;28;20056;-68
2022/03/15 09:08:43;;;;;;;13.57;8.88;;;;;;;;;;5053432;28;20060;-69
2022/03/15 09:11:47;;;;;;;14.77;9.00;;;;;;;;;;5053306;28;20186;-69
2022/03/15 09:14:52;;;;;;;12.55;8.73;;;;;;;;;;5052006;28;20400;-70
2022/03/15 09:17:57;;;;;;;14.73;10.13;;;;;;;;;;5052423;28;20041;-70
2022/03/15 09:21:02;;;;;;;14.93;9.55;;;;;;;;;;5053172;28;20147;-71
2022/03/15 09:24:07;;;;;;;15.95;10.27;;;;;;;;;;5053141;28;20048;-71
2022/03/15 09:27:12;;;;;;;17.75;10.52;;;;;;;;;;5052979;28;20056;-68
2022/03/15 09:30:17;;;;;;;11.98;8.98;;;;;;;;;;5051533;28;20429;-72
2022/03/15 09:33:23;;;;;;;10.65;8.20;;;;;;;;;;5052990;28;20041;-69
2022/03/15 09:36:27;;;;;;;13.98;8.90;;;;;;;;;;5053136;28;20037;-69
2022/03/15 09:39:33;;;;;;;13.65;9.18;;;;;;;;;;5052676;28;20033;-69
2022/03/15 09:42:37;;;;;;;10.15;8.10;;;;;;;;;;5051873;28;20044;-68
2022/03/15 09:45:42;;;;;;;14.00;9.35;;;;;;;;;;5052225;28;20051;-67
2022/03/15 09:48:47;;;;;;;15.73;8.40;;;;;;;;;;5052593;28;20225;-71
2022/03/15 09:51:51;;;;;;;14.15;8.40;;;;;;;;;;5040578;28;20041;-70
2022/03/15 09:54:56;;;;;;;12.70;8.50;;;;;;;;;;5052590;28;20172;-68
2022/03/15 09:58:01;;;;;;;12.73;7.57;;;;;;;;;;5052494;28;20363;-68
2022/03/15 10:01:05;;;;;;;14.02;7.32;;;;;;;;;;5052867;28;20044;-67
2022/03/15 10:04:10;;;;;;;13.55;7.38;;;;;;;;;;5052180;28;20048;-69
2022/03/15 10:07:14;;;;;;;10.07;7.65;;;;;;;;;;5052195;28;20058;-69
2022/03/15 10:10:18;;;;;;;17.42;8.00;;;;;;;;;;5052346;28;20165;-72
2022/03/15 10:13:23;;;;;;;10.90;6.85;;;;;;;;;;5051948;28;20053;-74
2022/03/15 10:16:31;;;;;;;7.97;6.55;;;;;;;;;;5052102;28;20133;-72
2022/03/15 10:19:35;;;;;;;15.30;7.80;;;;;;;;;;5052072;28;20033;-69
2022/03/15 10:22:49;;;;;;;11.60;8.38;;;;;;;;;;5051909;28;20048;-71
2022/03/15 10:25:53;;;;;;;8.98;5.78;;;;;;;;;;5051946;28;20428;-70
2022/03/15 10:28:58;;;;;;;12.10;7.50;;;;;;;;;;5051875;28;20037;-69
2022/03/15 10:32:04;;;;;;;16.30;7.40;;;;;;;;;;5051805;28;20043;-69
2022/03/15 10:35:09;;;;;;;9.27;6.68;;;;;;;;;;5051399;28;20040;-69
2022/03/15 10:38:14;;;;;;;10.50;6.95;;;;;;;;;;5050662;28;20033;-68
2022/03/15 10:41:18;;;;;;;10.57;7.57;;;;;;;;;;5051848;28;20049;-69
2022/03/15 10:44:26;;;;;;;9.15;7.03;;;;;;;;;;5051717;28;20037;-69
2022/03/15 10:47:30;;;;;;;8.48;7.00;;;;;;;;;;5051556;28;20485;-70
2022/03/15 10:50:35;;;;;;;10.48;7.10;;;;;;;;;;5039277;28;20362;-69
2022/03/15 10:53:44;;;;;;;14.10;7.25;;;;;;;;;;5051688;28;20511;-69
2022/03/15 10:56:57;;;;;;;12.45;7.63;;;;;;;;;;5051204;28;20489;-70
2022/03/15 11:00:05;;;;;;;14.13;8.13;;;;;;;;;;5051067;28;20063;-69
2022/03/15 11:03:13;;;;;;;12.55;8.20;;;;;;;;;;5051085;28;20501;-70
2022/03/15 11:06:30;;;;;;;17.05;8.50;;;;;;;;;;5051020;28;20071;-72
2022/03/15 11:09:35;;;;;;;18.05;9.10;;;;;;;;;;5051112;28;20034;-70
2022/03/15 11:12:58;;;;;;;14.40;8.40;;;;;;;;;;5049304;28;20045;-69
2022/03/15 11:16:04;;;;;;;13.10;7.70;;;;;;;;;;5048364;28;20056;-72
2022/03/15 11:19:11;;;;;;;12.32;8.52;;;;;;;;;;5049617;28;20041;-69
2022/03/15 11:22:17;;;;;;;12.95;7.25;;;;;;;;;;5051003;28;20057;-72
2022/03/15 11:25:22;;;;;;;9.52;7.25;;;;;;;;;;5050671;28;20042;-73
2022/03/15 11:28:27;;;;;;;14.75;8.18;;;;;;;;;;5050950;28;20037;-73
2022/03/15 11:31:32;;;;;;;11.75;7.63;;;;;;;;;;5051117;28;20029;-69
2022/03/15 11:34:40;;;;;;;11.23;7.20;;;;;;;;;;5050778;28;20037;-72
2022/03/15 11:37:45;;;;;;;12.13;8.45;;;;;;;;;;5050796;28;20498;-70
2022/03/15 11:40:54;;;;;;;8.88;6.90;;;;;;;;;;5050655;28;20068;-69
2022/03/15 11:44:18;;;;;;;11.15;7.95;;;;;;;;;;5050998;28;20037;-72
2022/03/15 11:47:38;;;;;;;8.82;6.57;;;;;;;;;;5049998;28;20044;-71
2022/03/15 11:50:59;;;;;;;7.50;6.20;;;;;;;;;;5050876;28;20036;-70
2022/03/15 11:54:10;;;;;;;11.35;7.20;;;;;;;;;;5054334;28;20041;-69
2022/03/15 11:57:31;;;;;;;11.73;6.90;;;;;;;;;;5055082;28;20330;-70
2022/03/15 12:00:44;;;;;;;10.60;8.02;;;;;;;;;;5054728;28;20052;-72
2022/03/15 12:03:54;;;;;;;12.18;8.15;;;;;;;;;;5053043;28;20041;-71
2022/03/15 12:07:00;;;;;;;12.27;8.32;;;;;;;;;;5054634;28;20507;-69
2022/03/15 12:10:09;;;;;;;12.00;7.00;;;;;;;;;;5054750;28;20033;-70
2022/03/15 12:13:14;;;;;;;9.52;7.25;;;;;;;;;;5054646;28;20041;-71
2022/03/15 12:16:24;;;;;;;11.23;6.60;;;;;;;;;;5054314;28;20053;-74
2022/03/15 12:19:39;;;;;;;10.20;6.25;;;;;;;;;;5053661;28;20045;-69
2022/03/15 12:22:47;;;;;;;13.73;6.53;;;;;;;;;;5054517;28;20051;-69
2022/03/15 12:25:53;;;;;;;9.38;6.03;;;;;;;;;;5054154;28;20111;-69
2022/03/15 12:28:57;;;;;;;10.68;6.43;;;;;;;;;;5054487;28;20040;-69
2022/03/15 12:32:11;;;;;;;14.05;6.38;;;;;;;;;;5055028;28;20042;-69
2022/03/15 12:35:16;;;;;;;7.55;5.57;;;;;;;;;;5054340;28;20242;-69
2022/03/15 12:38:32;;;;;;;9.63;6.57;;;;;;;;;;5054209;28;20041;-70
2022/03/15 12:41:36;;;;;;;9.43;6.13;;;;;;;;;;5054113;28;20045;-68
2022/03/15 12:44:53;;;;;;;13.75;6.85;;;;;;;;;;5054175;28;20370;-72
2022/03/15 12:48:08;;;;;;;11.30;6.18;;;;;;;;;;5053673;28;20485;-69
2022/03/15 12:51:19;;;;;;;10.70;6.50;;;;;;;;;;5052869;28;20033;-69
2022/03/15 12:54:25;;;;;;;9.75;5.13;;;;;;;;;;5053593;28;20033;-70
2022/03/15 12:57:32;;;;;;;9.88;5.97;;;;;;;;;;5053938;28;20041;-69
2022/03/15 13:00:40;;;;;;;14.27;6.65;;;;;;;;;;5053653;28;20045;-68
2022/03/15 13:03:45;;;;;;;16.15;6.72;;;;;;;;;;5051649;28;20049;-72
2022/03/15 13:06:50;;;;;;;9.55;5.72;;;;;;;;;;5052604;28;20056;-68
2022/03/15 13:09:58;;;;;;;9.75;5.88;;;;;;;;;;5053305;28;20033;-69
2022/03/15 13:13:03;;;;;;;9.10;5.75;;;;;;;;;;5053127;28;20473;-68
2022/03/15 13:16:08;;;;;;;9.52;5.68;;;;;;;;;;5053227;28;20045;-69
2022/03/15 13:19:13;;;;;;;8.05;5.78;;;;;;;;;;5053428;28;20060;-70
2022/03/15 13:22:27;;;;;;;8.15;5.30;;;;;;;;;;5049731;28;20489;-69
2022/03/15 13:25:45;;;;;;;11.40;5.65;;;;;;;;;;5052887;28;20033;-68
2022/03/15 13:28:50;;;;;;;11.85;6.60;;;;;;;;;;5052529;28;20052;-69
2022/03/15 13:31:55;;;;;;;9.90;6.45;;;;;;;;;;5052679;28;20045;-70
2022/03/15 13:35:00;;;;;;;9.75;5.40;;;;;;;;;;5052701;28;20488;-73
2022/03/15 13:38:14;;;;;;;7.30;5.70;;;;;;;;;;5052401;28;20033;-68
2022/03/15 13:41:24;;;;;;;10.10;5.45;;;;;;;;;;5052571;28;20041;-70
2022/03/15 13:44:37;;;;;;;10.77;5.38;;;;;;;;;;5052966;28;20467;-74
2022/03/15 13:47:55;;;;;;;12.00;5.25;;;;;;;;;;5052649;28;20048;-70
2022/03/15 13:51:03;;;;;;;7.22;4.60;;;;;;;;;;5040361;28;20051;-71
2022/03/15 13:54:09;;;;;;;10.00;5.40;;;;;;;;;;5052566;28;20037;-70
2022/03/15 13:57:25;;;;;;;14.55;4.93;;;;;;;;;;5052937;28;20044;-69
2022/03/15 14:00:30;;;;;;;8.20;5.38;;;;;;;;;;5052398;28;20037;-68
2022/03/15 14:03:36;;;;;;;12.52;5.60;;;;;;;;;;5052744;28;20041;-73
2022/03/15 14:06:41;;;;;;;8.13;4.78;;;;;;;;;;5052201;28;20052;-70
2022/03/15 14:09:46;;;;;;;9.38;5.47;;;;;;;;;;5051478;28;20040;-72
2022/03/15 14:12:52;;;;;;;8.18;4.80;;;;;;;;;;5052087;28;20041;-71
2022/03/15 14:16:07;;;;;;;12.70;5.10;;;;;;;;;;5051329;28;20045;-71
2022/03/15 14:19:18;;;;;;;12.05;5.00;;;;;;;;;;5052271;28;20048;-71
2022/03/15 14:22:24;;;;;;;9.13;4.45;;;;;;;;;;5052005;28;20033;-73
2022/03/15 14:25:32;;;;;;;8.00;4.60;;;;;;;;;;5052167;28;20044;-71
2022/03/15 14:28:38;;;;;;;7.93;5.20;;;;;;;;;;5052148;28;20040;-71
2022/03/15 14:31:43;;;;;;;13.10;4.80;;;;;;;;;;5052028;28;20033;-72
2022/03/15 14:35:02;;;;;;;8.95;4.72;;;;;;;;;;5052086;28;20433;-72
2022/03/15 14:38:09;;;;;;;10.30;4.68;;;;;;;;;;5051932;28;20036;-72
2022/03/15 14:41:13;;;;;;;6.78;4.70;;;;;;;;;;5051870;28;20045;-71
2022/03/15 14:44:19;;;;;;;10.05;4.30;;;;;;;;;;5050820;28;20485;-71
2022/03/15 14:47:24;;;;;;;8.07;4.20;;;;;;;;;;5050740;28;20048;-71
2022/03/15 14:50:30;;;;;;;12.20;5.20;;;;;;;;;;5051691;28;20033;-73
2022/03/15 14:53:37;;;;;;;10.23;4.85;;;;;;;;;;5050595;28;20527;-72
2022/03/15 14:56:42;;;;;;;11.43;4.90;;;;;;;;;;5051366;28;20535;-70
2022/03/15 14:59:47;;;;;;;6.55;4.38;;;;;;;;;;5050847;28;20063;-72
2022/03/15 15:02:52;;;;;;;9.25;4.80;;;;;;;;;;5051137;28;20453;-71
2022/03/15 15:05:57;;;;;;;8.23;4.40;;;;;;;;;;5051080;28;20040;-71
2022/03/15 15:09:06;;;;;;;10.32;5.45;;;;;;;;;;5051599;28;20045;-71
2022/03/15 15:12:13;;;;;;;15.85;5.45;;;;;;;;;;5051504;28;20607;-71
2022/03/15 15:15:19;;;;;;;6.53;4.07;;;;;;;;;;5051067;28;20045;-72
2022/03/15 15:18:24;;;;;;;10.05;5.38;;;;;;;;;;5050952;28;20037;-71
2022/03/15 15:21:28;;;;;;;9.30;5.15;;;;;;;;;;5050896;28;20033;-72
2022/03/15 15:24:32;;;;;;;8.70;5.68;;;;;;;;;;5050955;28;20037;-71
2022/03/15 15:27:38;;;;;;;10.40;4.70;;;;;;;;;;5050050;28;20045;-72
2022/03/15 15:30:47;;;;;;;10.93;4.70;;;;;;;;;;5050789;28;20176;-71
2022/03/15 15:33:52;;;;;;;10.30;5.32;;;;;;;;;;5050399;28;20511;-72
2022/03/15 15:36:56;;;;;;;7.70;4.70;;;;;;;;;;5050711;28;20033;-73
2022/03/15 15:40:02;;;;;;;12.57;4.63;;;;;;;;;;5050839;28;20049;-75
2022/03/15 15:43:09;;;;;;;10.63;5.32;;;;;;;;;;5050398;28;20037;-70
2022/03/15 15:46:20;;;;;;;14.88;9.70;;;;;;;;;;5050084;28;20060;-70
2022/03/15 15:49:24;;;;;;;10.60;5.43;;;;;;;;;;5050089;28;20052;-69
2022/03/15 15:52:29;;;;;;;7.35;4.43;;;;;;;;;;5048965;28;20400;-66
2022/03/15 15:55:37;;;;;;;8.82;5.18;;;;;;;;;;5050139;28;20041;-68
2022/03/15 15:58:41;;;;;;;9.60;5.32;;;;;;;;;;5048987;28;20053;-67
2022/03/15 16:01:49;;;;;;;17.17;6.22;;;;;;;;;;5050552;28;20155;-69
2022/03/15 16:04:55;;;;;;;9.50;5.40;;;;;;;;;;5050367;28;20045;-68
2022/03/15 16:08:02;;;;;;;21.35;7.85;;;;;;;;;;5050162;28;20041;-68
2022/03/15 16:11:09;;;;;;;18.10;5.88;;;;;;;;;;5050672;28;20048;-70
2022/03/15 16:14:14;;;;;;;10.63;5.20;;;;;;;;;;5049338;28;20370;-69
2022/03/15 16:17:19;;;;;;;7.63;5.65;;;;;;;;;;5050214;28;20392;-68
2022/03/15 16:20:27;;;;;;;17.38;6.03;;;;;;;;;;5050397;28;20037;-68
2022/03/15 16:23:34;;;;;;;16.63;6.85;;;;;;;;;;5050563;28;20035;-71
2022/03/15 16:26:38;;;;;;;17.25;9.70;;;;;;;;;;5050110;28;20058;-67
2022/03/15 16:29:43;;;;;;;16.13;8.15;;;;;;;;;;5050280;28;20402;-68
2022/03/15 16:32:49;;;;;;;15.60;8.05;;;;;;;;;;5050309;28;20056;-69
2022/03/15 16:35:54;;;;;;;21.85;9.10;;;;;;;;;;5049492;28;20037;-71
2022/03/15 16:38:58;;;;;;;11.48;7.38;;;;;;;;;;5051609;28;20052;-67
2022/03/15 16:42:02;;;;;;;22.42;7.03;;;;;;;;;;5053883;28;20037;-69
2022/03/15 16:45:06;;;;;;;20.45;8.32;;;;;;;;;;5054039;28;20037;-67
2022/03/15 16:48:11;;;;;;;13.57;6.75;;;;;;;;;;5052900;28;20049;-67
2022/03/15 16:51:16;;;;;;;24.15;8.48;;;;;;;;;;5053801;28;20029;-68
2022/03/15 16:54:20;;;;;;;20.88;9.55;;;;;;;;;;5052878;28;20413;-69
2022/03/15 16:57:28;;;;;;;21.92;8.25;;;;;;;;;;5053942;28;20122;-68
2022/03/15 17:00:32;;;;;;;17.65;7.72;;;;;;;;;;5053526;28;20041;-70
2022/03/15 17:06:59;;;;;;;21.10;9.18;;;;;;;;;;5053394;28;20044;-68
2022/03/15 17:10:04;;;;;;;14.13;9.32;;;;;;;;;;5053474;28;20041;-70
2022/03/15 17:13:10;;;;;;;21.10;12.60;;;;;;;;;;5053223;28;20127;-67
2022/03/15 17:16:18;;;;;;;18.48;10.00;;;;;;;;;;5053198;28;20059;-66
2022/03/15 17:19:23;;;;;;;22.65;11.68;;;;;;;;;;5053106;28;20044;-67
2022/03/15 17:22:28;;;;;;;20.85;11.55;;;;;;;;;;5052983;28;20040;-68
2022/03/15 17:25:36;;;;;;;24.48;11.80;;;;;;;;;;5053251;28;20052;-67
2022/03/15 17:28:42;;;;;;;18.23;10.32;;;;;;;;;;5053015;28;20203;-66
2022/03/15 17:31:47;;;;;;;19.02;10.80;;;;;;;;;;5053248;28;20048;-68
2022/03/15 17:34:53;;;;;;;16.27;12.02;;;;;;;;;;5051904;28;20048;-68
2022/03/15 17:37:57;;;;;;;25.58;14.68;;;;;;;;;;5052948;28;20048;-68
2022/03/15 17:41:02;;;;;;;20.20;14.73;;;;;;;;;;5052033;28;20047;-66
2022/03/15 17:44:06;;;;;;;21.08;14.00;;;;;;;;;;5052527;28;20048;-68
2022/03/15 17:47:12;;;;;;;23.38;13.95;;;;;;;;;;5052631;28;20063;-70
2022/03/15 17:50:16;;;;;;;18.27;12.40;;;;;;;;;;5051697;28;20052;-69
2022/03/15 17:53:21;;;;;;;23.63;14.27;;;;;;;;;;5052158;28;20052;-70
2022/03/15 17:56:25;;;;;;;26.02;13.68;;;;;;;;;;5052396;28;20052;-67
2022/03/15 17:59:29;;;;;;;25.75;16.38;;;;;;;;;;5053352;28;20052;-69
2022/03/15 18:02:36;;;;;;;25.63;16.80;;;;;;;;;;5051878;28;20499;-69
2022/03/15 18:05:40;;;;;;;31.88;21.10;;;;;;;;;;5051255;28;20538;-69
2022/03/15 18:08:45;;;;;;;43.05;25.60;;;;;;;;;;5051827;28;20511;-70